createdAt,value
2022-11-18T00:01:05.812Z,98.70
2022-11-18T00:03:33.328Z,98.80
2022-11-18T00:06:00.877Z,98.80
2022-11-18T00:08:28.419Z,99.10
2022-11-18T00:10:56.013Z,98.80
2022-11-18T00:13:42.294Z,99.30
2022-11-18T00:16:10.990Z,99.50
2022-11-18T00:18:39.039Z,98.90
2022-11-18T00:21:07.805Z,98.80
2022-11-18T00:23:35.719Z,99.10
2022-11-18T00:26:03.777Z,99.40
2022-11-18T00:28:33.035Z,98.80
2022-11-18T00:31:04.282Z,99.30
2022-11-18T00:33:32.166Z,98.80
2022-11-18T00:35:59.998Z,99.00
2022-11-18T00:38:27.683Z,98.80
2022-11-18T00:41:01.899Z,99.40
2022-11-18T00:43:28.497Z,99.30
2022-11-18T00:45:57.584Z,99.30
2022-11-18T00:48:25.151Z,99.10
2022-11-18T00:50:53.426Z,99.20
2022-11-18T00:53:21.649Z,99.50
2022-11-18T00:55:49.178Z,99.20
2022-11-18T00:58:16.705Z,99.20
2022-11-18T01:00:45.130Z,98.70
2022-11-18T01:03:14.023Z,99.30
2022-11-18T01:05:41.567Z,99.20
2022-11-18T01:08:10.122Z,98.90
2022-11-18T01:10:38.171Z,98.80
2022-11-18T01:13:20.207Z,98.70
2022-11-18T01:15:48.733Z,99.20
2022-11-18T01:18:17.897Z,99.00
2022-11-18T01:20:45.523Z,99.20
2022-11-18T01:23:13.256Z,98.80
2022-11-18T01:25:41.526Z,98.80
2022-11-18T01:28:09.093Z,99.00
2022-11-18T01:30:37.132Z,99.20
2022-11-18T01:33:05.522Z,98.90
2022-11-18T01:35:36.688Z,98.90
2022-11-18T01:38:04.490Z,99.00
2022-11-18T01:40:32.522Z,98.90
2022-11-18T01:43:00.300Z,98.80
2022-11-18T01:45:30.473Z,98.70
2022-11-18T01:48:01.957Z,98.50
2022-11-18T01:50:29.786Z,98.80
2022-11-18T01:53:00.713Z,98.70
2022-11-18T01:55:29.998Z,98.90
2022-11-18T01:58:01.432Z,98.80
2022-11-18T02:00:28.999Z,98.70
2022-11-18T02:02:57.726Z,99.00
2022-11-18T02:05:25.950Z,98.70
2022-11-18T02:07:53.504Z,99.00
2022-11-18T02:10:24.996Z,99.10
2022-11-18T02:12:53.348Z,98.40
2022-11-18T02:18:06.775Z,98.70
2022-11-18T02:20:35.874Z,98.60
2022-11-18T02:23:25.263Z,97.90
2022-11-18T02:26:00.976Z,98.50
2022-11-18T02:28:36.541Z,98.40
2022-11-18T02:31:08.265Z,98.90
2022-11-18T02:33:39.475Z,98.40
2022-11-18T02:36:09.494Z,98.60
2022-11-18T02:38:40.683Z,98.80
2022-11-18T02:41:09.818Z,98.50
2022-11-18T02:43:40.654Z,98.20
2022-11-18T02:46:11.764Z,98.70
2022-11-18T02:48:44.905Z,98.60
2022-11-18T02:51:13.190Z,98.20
2022-11-18T02:53:41.611Z,98.50
2022-11-18T02:56:10.165Z,98.70
2022-11-18T02:58:37.884Z,98.30
2022-11-18T03:01:05.638Z,98.20
2022-11-18T03:03:35.627Z,98.10
2022-11-18T03:06:06.919Z,98.20
2022-11-18T03:08:37.948Z,98.00
2022-11-18T03:11:09.658Z,98.60
2022-11-18T03:13:42.207Z,98.20
2022-11-18T03:16:12.389Z,98.00
2022-11-18T03:18:43.829Z,98.20
2022-11-18T03:21:13.865Z,98.00
2022-11-18T03:23:43.847Z,98.20
2022-11-18T03:26:13.547Z,97.90
2022-11-18T03:28:43.826Z,98.10
2022-11-18T03:31:25.763Z,98.40
2022-11-18T03:33:59.982Z,98.40
2022-11-18T03:36:33.856Z,97.60
2022-11-18T03:39:02.546Z,98.20
2022-11-18T03:41:33.308Z,98.50
2022-11-18T03:44:06.747Z,98.50
2022-11-18T03:46:38.153Z,98.30
2022-11-18T03:49:09.058Z,98.30
2022-11-18T03:51:38.917Z,98.00
2022-11-18T03:54:12.317Z,98.20
2022-11-18T03:56:43.758Z,98.20
2022-11-18T03:59:26.271Z,98.10
2022-11-18T04:02:01.109Z,98.30
2022-11-18T04:04:42.455Z,97.90
2022-11-18T04:07:12.878Z,98.30
2022-11-18T04:09:44.151Z,97.80
2022-11-18T04:12:14.291Z,98.10
2022-11-18T04:14:43.590Z,98.10
2022-11-18T04:17:12.442Z,98.20
2022-11-18T04:19:41.932Z,98.20
2022-11-18T04:22:11.922Z,98.20
2022-11-18T04:24:49.052Z,98.10
2022-11-18T04:27:19.831Z,98.30
2022-11-18T04:29:51.707Z,97.40
2022-11-18T04:32:19.536Z,97.20
2022-11-18T04:34:48.839Z,97.10
2022-11-18T04:37:51.743Z,97.60
2022-11-18T04:40:44.696Z,97.80
2022-11-18T04:43:12.561Z,97.40
2022-11-18T04:45:40.559Z,97.20
2022-11-18T04:48:08.453Z,97.10
2022-11-18T04:50:37.632Z,97.30
2022-11-18T04:53:05.536Z,97.70
2022-11-18T04:55:35.613Z,97.60
2022-11-18T05:00:45.573Z,97.40
2022-11-18T05:03:13.441Z,97.10
2022-11-18T05:05:42.797Z,97.60
2022-11-18T05:08:10.593Z,97.20
2022-11-18T05:10:51.745Z,96.70
2022-11-18T05:13:39.085Z,97.10
2022-11-18T05:16:07.267Z,97.40
2022-11-18T05:18:35.233Z,97.20
2022-11-18T05:21:13.372Z,97.10
2022-11-18T05:23:41.274Z,97.10
2022-11-18T05:26:10.057Z,96.60
2022-11-18T05:28:38.375Z,96.70
2022-11-18T05:31:08.529Z,96.80
2022-11-18T05:33:36.806Z,97.20
2022-11-18T05:36:05.150Z,96.30
2022-11-18T05:38:34.763Z,97.00
2022-11-18T05:41:05.674Z,96.20
2022-11-18T05:43:32.638Z,96.40
2022-11-18T05:46:00.789Z,95.50
2022-11-18T05:48:28.685Z,96.10
2022-11-18T05:50:56.593Z,96.50
2022-11-18T05:53:25.808Z,96.30
2022-11-18T05:56:09.400Z,96.40
2022-11-18T05:58:48.986Z,96.80
2022-11-18T06:01:55.950Z,96.90
2022-11-18T06:04:53.673Z,97.20
2022-11-18T06:07:23.947Z,96.30
2022-11-18T06:10:11.686Z,96.70
2022-11-18T06:19:22.751Z,96.00
2022-11-18T06:21:50.600Z,97.00
2022-11-18T06:24:18.586Z,97.20
2022-11-18T06:26:47.001Z,97.10
2022-11-18T06:29:16.450Z,97.30
2022-11-18T06:31:45.657Z,97.00
2022-11-18T06:34:13.322Z,97.50
2022-11-18T06:36:40.958Z,97.30
2022-11-18T06:39:08.829Z,97.20
2022-11-18T06:41:36.565Z,97.70
2022-11-18T06:44:03.197Z,97.20
2022-11-18T06:46:48.481Z,97.10
2022-11-18T06:49:17.742Z,97.00
2022-11-18T06:51:45.522Z,97.30
2022-11-18T06:54:13.412Z,97.00
2022-11-18T06:56:41.011Z,97.40
2022-11-18T06:59:08.627Z,97.00
2022-11-18T07:01:37.420Z,97.30
2022-11-18T07:04:05.467Z,98.40
2022-11-18T07:06:35.352Z,96.50
2022-11-18T07:09:04.102Z,97.10
2022-11-18T07:11:31.787Z,96.30
2022-11-18T07:13:59.350Z,96.50
2022-11-18T07:16:27.575Z,96.10
2022-11-18T07:18:55.740Z,96.50
2022-11-18T07:21:24.076Z,96.30
2022-11-18T07:23:53.462Z,96.30
2022-11-18T07:26:21.334Z,95.20
2022-11-18T07:28:49.241Z,95.40
2022-11-18T07:31:17.991Z,95.00
2022-11-18T07:33:46.307Z,95.10
2022-11-18T07:36:14.995Z,95.70
2022-11-18T07:38:42.932Z,95.30
2022-11-18T07:41:12.984Z,94.70
2022-11-18T07:43:40.797Z,94.70
2022-11-18T07:46:11.896Z,94.80
2022-11-18T07:48:39.447Z,94.40
2022-11-18T07:51:07.251Z,94.50
2022-11-18T07:53:35.551Z,94.00
2022-11-18T07:56:03.777Z,93.80
2022-11-18T07:58:33.087Z,94.00
2022-11-18T08:01:00.730Z,93.90
2022-11-18T08:03:29.065Z,94.60
2022-11-18T08:05:59.442Z,94.30
2022-11-18T08:08:27.057Z,94.30
2022-11-18T08:10:56.168Z,93.40
2022-11-18T08:13:23.726Z,93.30
2022-11-18T08:15:52.947Z,93.00
2022-11-18T08:18:20.693Z,92.60
2022-11-18T08:20:48.698Z,92.40
2022-11-18T08:23:17.103Z,92.50
2022-11-18T08:25:45.723Z,92.40
2022-11-18T08:28:14.189Z,91.30
2022-11-18T08:30:42.370Z,92.20
2022-11-18T08:33:11.245Z,91.60
2022-11-18T08:35:38.874Z,91.80
2022-11-18T08:38:06.410Z,91.30
2022-11-18T08:40:34.823Z,91.30
2022-11-18T08:43:02.540Z,91.50
2022-11-18T08:45:30.357Z,91.00
2022-11-18T08:47:57.977Z,91.20
2022-11-18T08:50:26.931Z,91.00
2022-11-18T08:52:54.523Z,91.50
2022-11-18T08:55:22.214Z,91.30
2022-11-18T08:57:49.798Z,90.80
2022-11-18T09:00:17.767Z,91.30
2022-11-18T09:02:45.382Z,90.60
2022-11-18T09:05:12.968Z,89.60
2022-11-18T09:07:42.066Z,89.40
2022-11-18T09:10:10.080Z,87.80
2022-11-18T09:12:37.657Z,87.60
2022-11-18T09:17:53.119Z,88.00
2022-11-18T09:20:20.905Z,87.40
2022-11-18T09:22:49.801Z,88.00
2022-11-18T09:25:17.410Z,86.50
2022-11-18T09:27:44.968Z,86.30
2022-11-18T09:30:12.748Z,87.30
2022-11-18T09:32:40.337Z,87.00
2022-11-18T09:35:07.957Z,86.60
2022-11-18T09:37:35.551Z,87.40
2022-11-18T09:40:04.583Z,86.30
2022-11-18T09:42:39.414Z,86.20
2022-11-18T09:45:17.152Z,86.00
2022-11-18T09:47:49.222Z,85.60
2022-11-18T09:50:47.836Z,86.50
2022-11-18T09:53:09.831Z,85.30
2022-11-18T09:55:40.936Z,84.90
2022-11-18T09:58:08.837Z,85.20
2022-11-18T10:00:36.411Z,85.30
2022-11-18T10:03:06.322Z,85.60
2022-11-18T10:05:39.426Z,84.20
2022-11-18T10:08:14.775Z,84.40
2022-11-18T10:10:47.073Z,84.50
2022-11-18T10:13:19.506Z,83.50
2022-11-18T10:15:51.916Z,84.10
2022-11-18T10:18:52.878Z,85.60
2022-11-18T10:21:16.120Z,83.60
2022-11-18T10:23:46.989Z,83.50
2022-11-18T10:26:15.880Z,83.60
2022-11-18T10:28:43.404Z,82.00
2022-11-18T10:31:12.399Z,80.70
2022-11-18T10:33:40.230Z,82.40
2022-11-18T10:36:13.375Z,82.80
2022-11-18T10:38:45.490Z,81.70
2022-11-18T10:41:18.571Z,81.90
2022-11-18T10:43:48.623Z,82.00
2022-11-18T10:46:17.936Z,81.70
2022-11-18T10:48:45.892Z,81.30
2022-11-18T10:51:24.014Z,80.60
2022-11-18T10:53:51.876Z,81.40
2022-11-18T10:56:20.992Z,78.60
2022-11-18T10:58:49.924Z,80.30
2022-11-18T11:01:21.317Z,80.70
2022-11-18T11:03:57.800Z,80.10
2022-11-18T11:06:32.286Z,80.10
2022-11-18T11:09:04.508Z,79.40
2022-11-18T11:11:34.608Z,78.40
2022-11-18T11:14:14.452Z,79.20
2022-11-18T11:16:44.838Z,79.20
2022-11-18T11:19:13.138Z,78.40
2022-11-18T11:21:40.831Z,78.20
2022-11-18T11:24:12.401Z,78.00
2022-11-18T11:29:39.022Z,77.90
2022-11-18T11:32:11.938Z,78.30
2022-11-18T11:34:43.733Z,76.70
2022-11-18T11:37:15.380Z,77.70
2022-11-18T11:39:50.924Z,76.60
2022-11-18T11:42:28.460Z,76.80
2022-11-18T11:45:02.534Z,77.40
2022-11-18T11:47:50.420Z,78.20
2022-11-18T11:50:20.303Z,78.00
2022-11-18T11:52:51.124Z,77.90
2022-11-18T11:55:20.736Z,76.80
2022-11-18T11:57:58.411Z,77.50
2022-11-18T12:00:25.989Z,77.70
2022-11-18T12:03:01.447Z,77.30
2022-11-18T12:05:31.121Z,78.20
2022-11-18T12:08:00.271Z,76.90
2022-11-18T12:10:39.051Z,76.40
2022-11-18T12:13:18.399Z,77.40
2022-11-18T12:15:49.531Z,77.10
2022-11-18T12:18:20.963Z,77.60
2022-11-18T12:20:49.456Z,77.50
2022-11-18T12:23:20.833Z,77.30
2022-11-18T12:25:52.850Z,76.10
2022-11-18T12:28:25.556Z,76.40
2022-11-18T12:31:08.041Z,77.10
2022-11-18T12:33:42.799Z,76.40
2022-11-18T12:36:10.801Z,77.60
2022-11-18T12:38:38.531Z,76.80
2022-11-18T12:41:43.569Z,76.20
2022-11-18T12:44:12.788Z,77.00
2022-11-18T12:46:54.156Z,76.10
2022-11-18T12:49:40.414Z,78.60
2022-11-18T12:52:28.914Z,76.80
2022-11-18T12:54:59.512Z,76.10
2022-11-18T12:57:29.050Z,76.60
2022-11-18T12:59:56.645Z,76.50
2022-11-18T13:02:25.080Z,76.70
2022-11-18T13:05:06.324Z,77.40
2022-11-18T13:07:52.438Z,77.00
2022-11-18T13:10:24.390Z,76.80
2022-11-18T13:12:52.525Z,77.10
2022-11-18T13:15:38.006Z,77.00
2022-11-18T13:18:12.320Z,76.40
2022-11-18T13:20:41.059Z,77.20
2022-11-18T13:23:42.537Z,77.10
2022-11-18T13:26:15.719Z,76.30
2022-11-18T13:28:46.918Z,76.40
2022-11-18T13:31:16.909Z,77.50
2022-11-18T13:33:44.569Z,76.60
2022-11-18T13:36:18.959Z,77.20
2022-11-18T13:38:55.692Z,76.20
2022-11-18T13:41:32.436Z,76.60
2022-11-18T13:44:13.405Z,76.40
2022-11-18T13:46:41.555Z,76.70
2022-11-18T13:49:14.880Z,76.60
2022-11-18T13:51:42.432Z,76.10
2022-11-18T13:54:12.117Z,76.00
2022-11-18T13:56:41.301Z,76.40
2022-11-18T13:59:18.156Z,75.70
2022-11-18T14:01:46.835Z,76.00
2022-11-18T14:04:19.115Z,75.50
2022-11-18T14:06:46.685Z,75.80
2022-11-18T14:09:20.265Z,75.50
2022-11-18T14:11:59.971Z,76.00
2022-11-18T14:14:32.417Z,76.00
2022-11-18T14:17:15.875Z,77.20
2022-11-18T14:19:43.895Z,77.00
2022-11-18T14:22:13.644Z,76.40
2022-11-18T14:24:41.951Z,75.90
2022-11-18T14:27:28.223Z,76.60
2022-11-18T14:29:57.165Z,76.80
2022-11-18T14:32:24.769Z,77.10
2022-11-18T14:34:58.288Z,77.00
2022-11-18T14:37:25.952Z,77.90
2022-11-18T14:39:55.716Z,77.70
2022-11-18T14:42:23.651Z,78.40
2022-11-18T14:44:51.354Z,78.10
2022-11-18T14:47:23.254Z,78.90
2022-11-18T14:49:50.843Z,79.00
2022-11-18T14:52:18.446Z,79.10
2022-11-18T14:54:46.015Z,79.80
2022-11-18T14:57:15.447Z,80.10
2022-11-18T14:59:43.126Z,80.10
2022-11-18T15:02:14.459Z,81.00
2022-11-18T15:04:43.562Z,81.40
2022-11-18T15:07:16.039Z,83.60
2022-11-18T15:09:46.349Z,83.40
2022-11-18T15:12:13.931Z,83.90
2022-11-18T15:14:41.460Z,84.10
2022-11-18T15:17:13.143Z,84.90
2022-11-18T15:19:41.654Z,84.30
2022-11-18T15:22:10.747Z,85.30
2022-11-18T15:24:38.438Z,85.10
2022-11-18T15:27:06.008Z,85.30
2022-11-18T15:29:33.792Z,86.00
2022-11-18T15:32:05.045Z,84.90
2022-11-18T15:34:32.589Z,85.70
2022-11-18T15:37:00.414Z,86.90
2022-11-18T15:39:29.299Z,87.20
2022-11-18T15:41:56.858Z,87.40
2022-11-18T15:44:24.820Z,87.60
2022-11-18T15:46:52.380Z,88.30
2022-11-18T15:49:20.086Z,89.00
2022-11-18T15:51:47.712Z,89.20
2022-11-18T15:54:15.338Z,89.20
2022-11-18T15:56:44.303Z,88.50
2022-11-18T15:59:12.440Z,89.30
2022-11-18T16:01:41.216Z,88.20
2022-11-18T16:04:11.409Z,87.90
2022-11-18T16:06:39.182Z,88.10
2022-11-18T16:09:07.639Z,88.20
2022-11-18T16:11:52.968Z,87.70
2022-11-18T16:14:23.264Z,88.00
2022-11-18T16:16:51.843Z,88.80
2022-11-18T16:19:19.971Z,87.40
2022-11-18T16:21:48.661Z,87.10
2022-11-18T16:24:17.862Z,86.20
2022-11-18T16:26:45.809Z,85.70
2022-11-18T16:29:15.800Z,85.90
2022-11-18T16:31:46.855Z,84.70
2022-11-18T16:34:15.848Z,84.10
2022-11-18T16:36:44.193Z,82.50
2022-11-18T16:39:12.574Z,83.30
2022-11-18T16:41:40.734Z,83.00
2022-11-18T16:44:08.985Z,82.80
2022-11-18T16:46:37.188Z,82.10
2022-11-18T16:49:06.925Z,82.50
2022-11-18T16:51:35.606Z,83.80
2022-11-18T16:54:04.280Z,82.80
2022-11-18T16:56:32.790Z,82.60
2022-11-18T16:59:00.819Z,83.10
2022-11-18T17:01:29.863Z,83.50
2022-11-18T17:03:58.245Z,83.00
2022-11-18T17:06:28.343Z,82.70
2022-11-18T17:08:55.959Z,82.80
2022-11-18T17:11:23.549Z,82.20
2022-11-18T17:13:56.415Z,82.30
2022-11-18T17:16:25.217Z,82.40
2022-11-18T17:18:54.797Z,82.80
2022-11-18T17:21:22.466Z,82.40
2022-11-18T17:23:51.508Z,83.40
2022-11-18T17:26:20.169Z,82.50
2022-11-18T17:28:47.878Z,82.80
2022-11-18T17:31:15.999Z,82.70
2022-11-18T17:33:43.716Z,82.30
2022-11-18T17:36:12.396Z,82.20
2022-11-18T17:38:40.526Z,81.50
2022-11-18T17:41:10.092Z,81.50
2022-11-18T17:43:37.625Z,81.00
2022-11-18T17:46:05.206Z,81.10
2022-11-18T17:48:32.764Z,81.30
2022-11-18T17:51:04.352Z,81.90
2022-11-18T17:53:32.524Z,82.30
2022-11-18T17:56:03.827Z,81.40
2022-11-18T17:58:33.154Z,81.90
2022-11-18T18:01:07.425Z,83.00
2022-11-18T18:03:36.071Z,81.70
2022-11-18T18:06:04.088Z,82.10
2022-11-18T18:08:32.108Z,82.10
2022-11-18T18:11:01.310Z,82.70
2022-11-18T18:13:46.632Z,83.00
2022-11-18T18:16:16.242Z,81.70
2022-11-18T18:18:43.829Z,81.80
2022-11-18T18:21:12.950Z,82.40
2022-11-18T18:23:40.946Z,83.00
2022-11-18T18:26:09.289Z,83.60
2022-11-18T18:28:37.314Z,83.60
2022-11-18T18:31:05.488Z,83.10
2022-11-18T18:33:36.227Z,83.10
2022-11-18T18:36:05.079Z,83.30
2022-11-18T18:38:33.078Z,83.10
2022-11-18T18:41:01.896Z,83.40
2022-11-18T18:43:29.653Z,83.10
2022-11-18T18:46:17.317Z,83.00
2022-11-18T18:48:46.293Z,83.10
2022-11-18T18:51:13.963Z,83.40
2022-11-18T18:53:41.529Z,83.40
2022-11-18T18:56:09.483Z,83.90
2022-11-18T18:58:37.424Z,83.70
2022-11-18T19:01:08.881Z,83.70
2022-11-18T19:03:36.498Z,84.10
2022-11-18T19:06:48.809Z,84.90
2022-11-18T19:09:02.660Z,84.80
2022-11-18T19:11:48.317Z,84.10
2022-11-18T19:14:16.905Z,84.10
2022-11-18T19:16:44.730Z,83.70
2022-11-18T19:19:13.695Z,84.30
2022-11-18T19:21:42.628Z,84.70
2022-11-18T19:24:28.372Z,85.00
2022-11-18T19:26:57.813Z,86.00
2022-11-18T19:29:25.891Z,86.10
2022-11-18T19:31:53.527Z,86.50
2022-11-18T19:34:21.280Z,86.00
2022-11-18T19:36:50.484Z,86.20
2022-11-18T19:39:18.274Z,86.30
2022-11-18T19:41:45.995Z,86.70
2022-11-18T19:44:13.576Z,86.70
2022-11-18T19:46:41.177Z,88.40
2022-11-18T19:49:09.444Z,86.80
2022-11-18T19:51:37.924Z,87.10
2022-11-18T19:54:06.872Z,86.50
2022-11-18T19:56:34.656Z,86.50
2022-11-18T19:59:02.276Z,85.90
2022-11-18T20:01:30.252Z,86.00
2022-11-18T20:03:58.922Z,86.60
2022-11-18T20:06:27.622Z,86.70
2022-11-18T20:08:56.872Z,86.20
2022-11-18T20:11:25.843Z,86.50
2022-11-18T20:13:53.667Z,86.40
2022-11-18T20:16:22.454Z,86.00
2022-11-18T20:18:53.031Z,85.80
2022-11-18T20:21:20.965Z,85.80
2022-11-18T20:23:49.171Z,86.00
2022-11-18T20:26:17.754Z,86.20
2022-11-18T20:28:47.354Z,87.00
2022-11-18T20:31:16.042Z,88.60
2022-11-18T20:33:48.448Z,87.60
2022-11-18T20:36:17.330Z,87.40
2022-11-18T20:38:48.714Z,87.60
2022-11-18T20:41:16.355Z,87.40
2022-11-18T20:43:44.532Z,87.50
2022-11-18T20:46:18.816Z,88.00
2022-11-18T20:48:47.945Z,88.20
2022-11-18T20:51:16.691Z,88.30
2022-11-18T20:53:44.780Z,88.10
2022-11-18T20:56:12.817Z,87.30
2022-11-18T20:58:41.014Z,87.50
2022-11-18T21:01:10.190Z,87.60
2022-11-18T21:03:39.332Z,87.70
2022-11-18T21:06:13.466Z,87.20
2022-11-18T21:08:42.663Z,87.70
2022-11-18T21:11:11.628Z,87.70
2022-11-18T21:14:05.429Z,88.10
2022-11-18T21:16:33.014Z,88.10
2022-11-18T21:19:01.906Z,88.30
2022-11-18T21:21:48.836Z,89.10
2022-11-18T21:24:17.740Z,90.00
2022-11-18T21:26:46.028Z,89.70
2022-11-18T21:29:14.278Z,90.20
2022-11-18T21:31:42.160Z,90.00
2022-11-18T21:34:11.721Z,88.70
2022-11-18T21:36:44.331Z,89.40
2022-11-18T21:39:14.837Z,90.00
2022-11-18T21:41:42.683Z,90.00
2022-11-18T21:44:10.809Z,89.50
2022-11-18T21:46:39.462Z,89.50
2022-11-18T21:49:07.521Z,90.00
2022-11-18T21:51:36.850Z,89.40
2022-11-18T21:54:04.888Z,89.90
2022-11-18T21:56:32.664Z,89.60
2022-11-18T21:59:01.914Z,89.60
2022-11-18T22:01:30.532Z,89.80
2022-11-18T22:03:59.308Z,89.20
2022-11-18T22:06:29.616Z,89.00
2022-11-18T22:08:59.050Z,89.50
2022-11-18T22:11:26.862Z,89.10
2022-11-18T22:13:54.458Z,89.20
2022-11-18T22:16:23.134Z,88.90
2022-11-18T22:18:56.583Z,89.30
2022-11-18T22:21:26.106Z,89.20
2022-11-18T22:23:53.768Z,89.00
2022-11-18T22:26:22.858Z,89.10
2022-11-18T22:28:53.671Z,88.80
2022-11-18T22:31:21.936Z,89.10
2022-11-18T22:33:49.843Z,88.50
2022-11-18T22:36:18.344Z,89.00
2022-11-18T22:38:46.782Z,89.00
2022-11-18T22:41:35.283Z,88.20
2022-11-18T22:44:07.375Z,87.70
2022-11-18T22:46:36.063Z,87.90
2022-11-18T22:49:03.658Z,89.00
2022-11-18T22:51:31.298Z,90.00
2022-11-18T22:56:46.461Z,89.90
2022-11-18T22:59:15.688Z,90.20
2022-11-18T23:01:43.448Z,90.00
2022-11-18T23:04:11.059Z,90.20
2022-11-18T23:06:38.680Z,90.70
2022-11-18T23:09:06.256Z,90.80
2022-11-18T23:11:51.432Z,91.40
2022-11-18T23:14:20.345Z,91.20
2022-11-18T23:16:47.923Z,91.30
2022-11-18T23:19:17.278Z,91.30
2022-11-18T23:21:45.790Z,91.30
2022-11-18T23:24:14.107Z,91.20
2022-11-18T23:26:41.917Z,91.30
2022-11-18T23:29:10.368Z,91.40
2022-11-18T23:31:41.092Z,91.40
2022-11-18T23:34:09.726Z,91.60
2022-11-18T23:36:37.284Z,91.70
2022-11-18T23:39:04.825Z,91.60
2022-11-18T23:41:32.638Z,91.70
2022-11-18T23:44:00.325Z,91.80
2022-11-18T23:46:28.234Z,91.80
2022-11-18T23:48:57.160Z,92.00
2022-11-18T23:51:25.988Z,92.20
2022-11-18T23:53:54.466Z,92.20
2022-11-18T23:56:23.094Z,92.30
2022-11-18T23:58:51.537Z,92.50
